Time;durP1;ratioP1;P1;durP2;ratioP2;P2;SDS_P1;SDS_P2;PMS_P1;PMS_P2;Temp;Humidity;BMP_temperature;BMP_pressure;BME280_temperature;BME280_humidity;BME280_pressure;Samples;Min_cycle;Max_cycle;Signal;HPM_P1;HPM_P2
2022/06/17 00:01:38;;;;;;;;;;;21.10;78.20;;;;;;4864485;29;19944;-84
2022/06/17 00:04:05;;;;;;;;;;;21.20;78.70;;;;;;4899004;29;19928;-84
2022/06/17 00:06:35;;;;;;;;;;;21.10;78.60;;;;;;4899853;29;19951;-84
2022/06/17 00:09:04;;;;;;;;;;;21.10;78.80;;;;;;4902563;29;20405;-84
2022/06/17 00:11:32;;;;;;;;;;;21.10;78.20;;;;;;4905161;29;20379;-84
2022/06/17 00:13:59;;;;;;;;;;;21.10;78.00;;;;;;4924725;29;19927;-84
2022/06/17 00:16:32;;;;;;;;;;;21.20;77.90;;;;;;4889046;29;19927;-84
2022/06/17 00:19:01;;;;;;;;;;;21.10;78.00;;;;;;4886115;29;19931;-85
2022/06/17 00:21:31;;;;;;;;;;;21.20;78.00;;;;;;4902149;29;19957;-84
2022/06/17 00:23:59;;;;;;;;;;;21.20;77.60;;;;;;4902665;29;19928;-84
2022/06/17 00:26:26;;;;;;;;;;;21.20;77.70;;;;;;4905813;29;19928;-84
2022/06/17 00:28:56;;;;;;;;;;;21.20;77.70;;;;;;4905851;29;19939;-84
2022/06/17 00:31:24;;;;;;;;;;;21.20;77.70;;;;;;4901510;29;19939;-84
2022/06/17 00:33:51;;;;;;;;;;;21.20;78.00;;;;;;4916873;29;20156;-84
2022/06/17 00:36:22;;;;;;;;;;;21.20;77.60;;;;;;4904512;29;19932;-83
2022/06/17 00:38:54;;;;;;;;;;;21.10;78.30;;;;;;4899673;29;20296;-84
2022/06/17 00:41:24;;;;;;;;;;;21.10;77.90;;;;;;4892602;29;19928;-84
2022/06/17 00:43:52;;;;;;;;;;;21.00;77.90;;;;;;4903141;29;19927;-85
2022/06/17 00:46:34;;;;;;;;;;;21.00;78.10;;;;;;4900311;29;19927;-83
2022/06/17 00:49:08;;;;;;;;;;;21.00;78.00;;;;;;4923151;29;19931;-83
2022/06/17 00:51:40;;;;;;;;;;;20.90;78.20;;;;;;4913266;29;19927;-84
2022/06/17 00:54:19;;;;;;;;;;;20.90;78.20;;;;;;4555307;29;10000137;-84
2022/06/17 00:56:47;;;;;;;;;;;20.90;78.30;;;;;;4918573;29;20422;-84
2022/06/17 00:59:14;;;;;;;;;;;20.80;78.40;;;;;;4907071;29;19927;-83
2022/06/17 01:01:53;;;;;;;;;;;20.80;78.50;;;;;;4912688;29;19928;-84
2022/06/17 01:04:29;;;;;;;;;;;20.70;78.20;;;;;;4887320;29;19932;-83
2022/06/17 01:07:06;;;;;;;;;;;20.60;78.40;;;;;;4906805;29;19928;-84
2022/06/17 01:12:29;;;;;;;;;;;20.70;78.50;;;;;;4905796;29;19928;-84
2022/06/17 01:14:57;;;;;;;;;;;20.70;78.40;;;;;;4899777;29;19950;-84
2022/06/17 01:17:26;;;;;;;;;;;20.60;78.40;;;;;;4882968;29;19935;-84
2022/06/17 01:20:00;;;;;;;;;;;20.60;78.40;;;;;;4909318;29;19932;-83
2022/06/17 01:22:39;;;;;;;;;;;20.60;78.40;;;;;;4906316;29;19938;-83
2022/06/17 01:25:12;;;;;;;;;;;21.90;79.10;;;;;;4905917;29;19934;-84
2022/06/17 01:27:43;;;;;;;;;;;20.50;78.90;;;;;;4909935;29;19935;-85
2022/06/17 01:30:23;;;;;;;;;;;20.60;78.30;;;;;;4892199;29;19927;-84
2022/06/17 01:33:04;;;;;;;;;;;20.60;78.30;;;;;;4902093;29;19928;-84
2022/06/17 01:35:36;;;;;;;;;;;20.50;78.30;;;;;;4908180;29;19935;-84
2022/06/17 01:38:05;;;;;;;;;;;20.50;78.50;;;;;;4886340;29;19927;-83
2022/06/17 01:40:34;;;;;;;;;;;20.40;78.50;;;;;;4883458;29;20414;-82
2022/06/17 01:43:04;;;;;;;;;;;20.40;78.70;;;;;;4879393;29;19939;-83
2022/06/17 01:45:32;;;;;;;;;;;20.40;79.40;;;;;;4921127;29;19942;-84
2022/06/17 01:48:06;;;;;;;;;;;20.30;78.80;;;;;;4901001;29;19928;-84
2022/06/17 01:50:36;;;;;;;;;;;20.70;79.60;;;;;;4905284;29;19928;-84
2022/06/17 01:53:14;;;;;;;;;;;20.20;79.20;;;;;;4916121;29;19942;-83
2022/06/17 01:55:45;;;;;;;;;;;20.20;79.40;;;;;;4901431;29;19931;-83
2022/06/17 01:58:28;;;;;;;;;;;20.10;80.00;;;;;;4906039;29;19938;-84
2022/06/17 02:00:57;;;;;;;;;;;20.10;79.70;;;;;;4895935;29;19935;-83
2022/06/17 02:03:33;;;;;;;;;;;20.00;80.10;;;;;;4883193;29;20398;-83
2022/06/17 02:06:12;;;;;;;;;;;20.00;80.10;;;;;;4917244;29;19932;-84
2022/06/17 02:08:40;;;;;;;;;;;20.00;80.50;;;;;;4886027;29;19927;-82
2022/06/17 02:11:10;;;;;;;;;;;19.90;80.20;;;;;;4911916;29;19928;-84
2022/06/17 02:13:44;;;;;;;;;;;19.90;80.40;;;;;;4915368;29;19931;-84
2022/06/17 02:16:35;;;;;;;;;;;19.90;80.90;;;;;;4867621;29;19938;-85
2022/06/17 02:19:41;;;;;;;;;;;19.90;80.50;;;;;;4891502;29;19927;-84
2022/06/17 02:22:12;;;;;;;;;;;19.90;80.60;;;;;;4899073;29;20378;-84
2022/06/17 02:24:42;;;;;;;;;;;19.80;80.50;;;;;;4908791;29;20399;-84
2022/06/17 02:27:11;;;;;;;;;;;19.80;80.40;;;;;;4926066;29;19938;-84
2022/06/17 02:29:40;;;;;;;;;;;19.30;80.60;;;;;;4892912;29;19931;-84
2022/06/17 02:32:10;;;;;;;;;;;19.70;80.90;;;;;;4892785;29;19932;-83
2022/06/17 02:34:48;;;;;;;;;;;19.20;80.60;;;;;;4908043;29;19928;-84
2022/06/17 02:37:20;;;;;;;;;;;19.70;81.00;;;;;;4910734;29;19927;-84
2022/06/17 02:39:55;;;;;;;;;;;19.60;81.10;;;;;;4891143;29;19934;-83
2022/06/17 02:42:36;;;;;;;;;;;19.60;81.10;;;;;;4920023;29;19928;-84
2022/06/17 02:45:11;;;;;;;;;;;19.50;81.30;;;;;;4908708;29;19942;-84
2022/06/17 02:47:39;;;;;;;;;;;19.50;81.50;;;;;;4896375;29;19931;-84
2022/06/17 02:50:07;;;;;;;;;;;19.40;81.40;;;;;;4913691;29;19934;-85
2022/06/17 02:52:36;;;;;;;;;;;19.40;81.70;;;;;;4906496;29;19927;-84
2022/06/17 02:55:13;;;;;;;;;;;19.40;81.80;;;;;;4894736;29;19939;-84
2022/06/17 02:57:45;;;;;;;;;;;19.30;81.70;;;;;;4890557;29;19928;-84
2022/06/17 03:00:19;;;;;;;;;;;19.20;82.50;;;;;;4903119;29;19931;-84
2022/06/17 03:02:49;;;;;;;;;;;19.20;82.20;;;;;;4898271;29;20407;-83
2022/06/17 03:05:30;;;;;;;;;;;19.10;82.80;;;;;;4886542;29;19938;-84
2022/06/17 03:08:06;;;;;;;;;;;19.10;82.80;;;;;;4888546;29;19928;-83
2022/06/17 03:10:40;;;;;;;;;;;19.00;82.70;;;;;;4879901;29;20013;-83
2022/06/17 03:13:15;;;;;;;;;;;19.00;82.90;;;;;;4891072;29;19927;-84
2022/06/17 03:15:46;;;;;;;;;;;19.50;83.10;;;;;;4915182;29;19934;-84
2022/06/17 03:18:15;;;;;;;;;;;18.90;83.20;;;;;;4905136;29;19923;-83
2022/06/17 03:20:48;;;;;;;;;;;18.90;83.50;;;;;;4895407;29;19927;-84
2022/06/17 03:23:24;;;;;;;;;;;18.80;83.30;;;;;;4907388;29;20414;-84
2022/06/17 03:25:56;;;;;;;;;;;18.80;83.40;;;;;;4905783;29;19931;-84
2022/06/17 03:28:36;;;;;;;;;;;18.80;84.20;;;;;;4906805;29;19932;-83
2022/06/17 03:31:07;;;;;;;;;;;18.70;84.40;;;;;;4893511;29;19927;-84
2022/06/17 03:33:46;;;;;;;;;;;18.60;85.00;;;;;;4890333;29;19927;-83
2022/06/17 03:36:21;;;;;;;;;;;18.60;85.10;;;;;;4898750;29;19966;-84
2022/06/17 03:38:51;;;;;;;;;;;18.60;85.40;;;;;;4912395;29;19933;-83
2022/06/17 03:41:26;;;;;;;;;;;18.50;85.50;;;;;;4920228;29;19928;-84
2022/06/17 03:44:13;;;;;;;;;;;18.40;85.50;;;;;;4915193;29;19935;-84
2022/06/17 03:46:45;;;;;;;;;;;18.40;85.90;;;;;;4909060;29;19931;-84
2022/06/17 03:49:15;;;;;;;;;;;18.30;86.00;;;;;;4898181;29;19927;-85
2022/06/17 03:51:43;;;;;;;;;;;18.30;87.10;;;;;;4909626;29;19938;-84
2022/06/17 03:54:15;;;;;;;;;;;18.30;86.40;;;;;;4902079;29;19927;-84
2022/06/17 03:56:45;;;;;;;;;;;18.20;86.30;;;;;;4904347;29;19931;-83
2022/06/17 03:59:16;;;;;;;;;;;18.10;86.80;;;;;;4887860;29;19927;-84
2022/06/17 04:01:48;;;;;;;;;;;18.00;87.60;;;;;;4893704;29;19928;-84
2022/06/17 04:04:24;;;;;;;;;;;17.90;86.80;;;;;;4899522;29;19928;-84
2022/06/17 04:06:55;;;;;;;;;;;17.90;86.90;;;;;;4910033;29;19938;-82
2022/06/17 04:09:29;;;;;;;;;;;17.90;86.80;;;;;;4915855;29;19927;-84
2022/06/17 04:12:03;;;;;;;;;;;17.90;86.70;;;;;;4888440;29;20311;-83
2022/06/17 04:14:46;;;;;;;;;;;17.80;86.90;;;;;;4855934;29;19935;-84
2022/06/17 04:17:20;;;;;;;;;;;17.30;86.80;;;;;;4894662;29;19935;-83
2022/06/17 04:19:53;;;;;;;;;;;18.30;87.70;;;;;;4921062;29;19935;-83
2022/06/17 04:22:27;;;;;;;;;;;17.90;87.40;;;;;;4888264;29;19932;-83
2022/06/17 04:25:42;;;;;;;;;;;17.90;87.90;;;;;;4852560;29;19928;-84
2022/06/17 04:28:12;;;;;;;;;;;18.80;88.10;;;;;;4848861;29;19928;-84
2022/06/17 04:30:47;;;;;;;;;;;17.80;87.80;;;;;;4882896;29;19947;-83
2022/06/17 04:33:22;;;;;;;;;;;17.80;88.20;;;;;;4917845;29;20299;-83
2022/06/17 04:35:53;;;;;;;;;;;17.90;87.60;;;;;;4924491;29;19942;-84
2022/06/17 04:38:22;;;;;;;;;;;17.90;87.80;;;;;;4918156;29;19927;-84
2022/06/17 04:41:02;;;;;;;;;;;17.90;87.80;;;;;;4874031;29;19927;-84
2022/06/17 04:43:52;;;;;;;;;;;18.10;88.30;;;;;;4885407;29;19961;-84
2022/06/17 04:46:28;;;;;;;;;;;18.00;88.10;;;;;;4889062;29;19934;-84
2022/06/17 04:48:57;;;;;;;;;;;17.90;87.80;;;;;;4890109;29;19927;-84
2022/06/17 04:51:31;;;;;;;;;;;17.90;87.80;;;;;;4885217;29;19927;-84
2022/06/17 04:54:06;;;;;;;;;;;18.00;87.90;;;;;;4902709;29;19942;-83
2022/06/17 04:56:53;;;;;;;;;;;18.00;87.70;;;;;;4909609;29;19934;-84
2022/06/17 04:59:31;;;;;;;;;;;18.00;87.70;;;;;;4889802;29;19932;-84
2022/06/17 05:02:04;;;;;;;;;;;18.10;87.50;;;;;;4913001;29;19938;-84
2022/06/17 05:04:45;;;;;;;;;;;18.20;87.30;;;;;;4903640;29;19958;-85
2022/06/17 05:07:15;;;;;;;;;;;18.30;87.40;;;;;;4887850;29;19934;-85
2022/06/17 05:09:45;;;;;;;;;;;18.60;87.50;;;;;;4897427;29;19928;-84
2022/06/17 05:12:21;;;;;;;;;;;17.30;86.90;;;;;;4896077;29;20419;-84
2022/06/17 05:14:52;;;;;;;;;;;18.50;87.30;;;;;;4895997;29;19927;-84
2022/06/17 05:17:20;;;;;;;;;;;18.60;87.50;;;;;;4874881;29;19943;-84
2022/06/17 05:19:50;;;;;;;;;;;18.70;86.60;;;;;;4902047;29;19954;-84
2022/06/17 05:22:30;;;;;;;;;;;18.70;86.20;;;;;;4888585;29;19931;-85
2022/06/17 05:25:02;;;;;;;;;;;18.90;86.30;;;;;;4901177;29;19935;-85
2022/06/17 05:27:37;;;;;;;;;;;18.90;86.20;;;;;;4884192;29;20431;-84
2022/06/17 05:30:07;;;;;;;;;;;19.00;85.80;;;;;;4894619;29;19938;-84
2022/06/17 05:32:40;;;;;;;;;;;20.00;86.40;;;;;;4888386;29;19938;-84
2022/06/17 05:35:15;;;;;;;;;;;19.20;85.70;;;;;;4904707;29;19927;-85
2022/06/17 05:37:46;;;;;;;;;;;19.30;85.30;;;;;;4896429;29;19943;-85
2022/06/17 05:40:18;;;;;;;;;;;19.30;85.50;;;;;;4903127;29;20395;-83
2022/06/17 05:42:52;;;;;;;;;;;19.40;85.00;;;;;;4895079;29;19938;-84
2022/06/17 05:45:23;;;;;;;;;;;19.50;84.60;;;;;;4886899;29;19943;-82
2022/06/17 05:48:10;;;;;;;;;;;19.50;84.00;;;;;;4887859;29;19938;-84
2022/06/17 05:50:59;;;;;;;;;;;19.60;84.30;;;;;;4860599;29;19932;-85
2022/06/17 05:53:27;;;;;;;;;;;19.70;84.30;;;;;;4883477;29;19928;-85
2022/06/17 05:56:03;;;;;;;;;;;19.70;83.80;;;;;;4887586;29;19935;-84
2022/06/17 05:58:33;;;;;;;;;;;19.70;83.60;;;;;;4877982;29;19932;-83
2022/06/17 06:01:01;;;;;;;;;;;19.90;82.70;;;;;;4880789;29;19935;-84
2022/06/17 06:03:29;;;;;;;;;;;19.90;82.00;;;;;;4880067;29;19931;-85
2022/06/17 06:06:03;;;;;;;;;;;19.90;81.50;;;;;;4868108;29;20485;-83
2022/06/17 06:08:36;;;;;;;;;;;20.10;81.90;;;;;;4877021;29;19932;-84
2022/06/17 06:11:08;;;;;;;;;;;20.00;81.80;;;;;;4847548;29;19931;-83
2022/06/17 06:13:42;;;;;;;;;;;20.10;82.00;;;;;;4863811;29;19927;-84
2022/06/17 06:16:15;;;;;;;;;;;20.20;81.90;;;;;;4865485;29;19928;-84
2022/06/17 06:18:56;;;;;;;;;;;20.30;81.90;;;;;;4884747;29;19939;-83
2022/06/17 06:21:26;;;;;;;;;;;20.40;82.40;;;;;;4882740;29;19935;-83
2022/06/17 06:23:56;;;;;;;;;;;20.50;81.40;;;;;;4871175;29;19938;-84
2022/06/17 06:26:30;;;;;;;;;;;20.70;81.10;;;;;;4884515;29;19928;-83
2022/06/17 06:29:11;;;;;;;;;;;20.90;80.50;;;;;;4868857;29;19932;-83
2022/06/17 06:31:40;;;;;;;;;;;21.10;79.00;;;;;;4863998;29;20380;-85
2022/06/17 06:34:26;;;;;;;;;;;21.30;78.70;;;;;;4881208;29;19928;-84
2022/06/17 06:37:14;;;;;;;;;;;21.80;78.70;;;;;;4881915;29;19940;-84
2022/06/17 06:39:46;;;;;;;;;;;21.70;78.00;;;;;;4879335;29;19928;-87
2022/06/17 06:42:13;;;;;;;;;;;22.00;78.10;;;;;;4879821;29;19982;-84
2022/06/17 06:45:02;;;;;;;;;;;22.10;78.20;;;;;;4868528;29;19928;-84
2022/06/17 06:47:39;;;;;;;;;;;22.30;77.60;;;;;;4896175;29;19932;-84
2022/06/17 06:50:23;;;;;;;;;;;22.40;77.10;;;;;;4894985;29;20480;-84
2022/06/17 06:52:54;;;;;;;;;;;22.60;77.10;;;;;;4899315;29;19931;-85
2022/06/17 06:55:23;;;;;;;;;;;22.70;77.40;;;;;;4915763;29;19927;-84
2022/06/17 06:57:52;;;;;;;;;;;22.80;77.30;;;;;;4914350;29;19982;-84
2022/06/17 07:00:26;;;;;;;;;;;22.90;77.70;;;;;;4900775;29;19938;-83
2022/06/17 07:02:54;;;;;;;;;;;23.00;77.40;;;;;;4900890;29;20017;-85
2022/06/17 07:05:24;;;;;;;;;;;23.00;77.50;;;;;;4884606;29;19931;-84
2022/06/17 07:07:54;;;;;;;;;;;23.10;77.60;;;;;;4909557;29;19927;-83
2022/06/17 07:10:25;;;;;;;;;;;23.10;77.90;;;;;;4901723;29;19935;-84
2022/06/17 07:13:21;;;;;;;;;;;23.10;78.10;;;;;;4917587;29;19935;-83
2022/06/17 07:15:59;;;;;;;;;;;23.10;78.20;;;;;;4902656;29;19927;-84
2022/06/17 07:18:29;;;;;;;;;;;23.10;78.30;;;;;;4903839;29;19938;-84
2022/06/17 07:21:11;;;;;;;;;;;23.30;78.30;;;;;;4904914;29;19931;-83
2022/06/17 07:23:41;;;;;;;;;;;23.30;78.10;;;;;;4907291;29;19935;-86
2022/06/17 07:26:13;;;;;;;;;;;23.40;78.50;;;;;;4901281;29;19938;-85
2022/06/17 07:28:43;;;;;;;;;;;23.40;78.10;;;;;;4900572;29;20149;-83
2022/06/17 07:31:14;;;;;;;;;;;23.50;78.00;;;;;;4900667;29;19932;-85
2022/06/17 07:33:41;;;;;;;;;;;23.50;78.20;;;;;;4899722;29;19943;-84
2022/06/17 07:39:53;;;;;;;;;;;23.60;78.50;;;;;;4879547;29;19932;-85
2022/06/17 07:41:50;;;;;;;;;;;23.60;78.50;;;;;;4901030;29;19928;-85
2022/06/17 07:44:18;;;;;;;;;;;23.70;78.40;;;;;;4901323;29;20395;-85
2022/06/17 07:46:45;;;;;;;;;;;23.70;78.40;;;;;;4908727;29;19935;-86
2022/06/17 07:49:14;;;;;;;;;;;23.70;78.30;;;;;;4891282;29;19927;-84
2022/06/17 07:51:41;;;;;;;;;;;23.80;77.80;;;;;;4901221;29;19948;-86
2022/06/17 07:54:09;;;;;;;;;;;23.80;77.80;;;;;;4917608;29;19934;-86
2022/06/17 07:56:37;;;;;;;;;;;23.80;77.60;;;;;;4882207;29;19935;-85
2022/06/17 07:59:06;;;;;;;;;;;23.70;77.70;;;;;;4911254;29;20132;-85
2022/06/17 08:01:34;;;;;;;;;;;23.80;77.50;;;;;;4917918;29;19938;-84
2022/06/17 08:04:01;;;;;;;;;;;23.80;77.40;;;;;;4920115;29;19935;-83
2022/06/17 08:06:29;;;;;;;;;;;23.80;77.40;;;;;;4920713;29;19931;-84
2022/06/17 08:08:57;;;;;;;;;;;23.80;77.40;;;;;;4903562;29;19935;-85
2022/06/17 08:11:24;;;;;;;;;;;23.90;77.10;;;;;;4917700;29;19931;-83
2022/06/17 08:13:52;;;;;;;;;;;24.00;76.80;;;;;;4917002;29;19938;-85
2022/06/17 08:16:20;;;;;;;;;;;24.10;76.10;;;;;;4901199;29;19941;-85
2022/06/17 08:18:48;;;;;;;;;;;24.20;74.60;;;;;;4917028;29;19942;-84
2022/06/17 08:21:15;;;;;;;;;;;24.40;75.00;;;;;;4921254;29;19927;-83
2022/06/17 08:24:03;;;;;;;;;;;24.50;74.90;;;;;;4919684;29;19927;-84
2022/06/17 08:26:31;;;;;;;;;;;24.60;74.80;;;;;;4918092;29;19927;-83
2022/06/17 08:28:58;;;;;;;;;;;24.80;73.30;;;;;;4914591;29;20315;-84
2022/06/17 08:31:27;;;;;;;;;;;24.90;74.00;;;;;;4902983;29;19931;-84
2022/06/17 08:33:55;;;;;;;;;;;25.00;72.40;;;;;;4916716;29;19931;-84
2022/06/17 08:36:24;;;;;;;;;;;25.10;71.20;;;;;;4905823;29;20307;-84
2022/06/17 08:39:00;;;;;;;;;;;25.20;70.40;;;;;;4919807;29;19931;-85
2022/06/17 08:41:29;;;;;;;;;;;25.30;71.10;;;;;;4900304;29;19927;-85
2022/06/17 08:44:05;;;;;;;;;;;25.40;71.40;;;;;;4901356;29;20283;-85
2022/06/17 08:46:35;;;;;;;;;;;25.50;70.90;;;;;;4898448;29;19931;-85
2022/06/17 08:49:21;;;;;;;;;;;25.70;71.10;;;;;;4916917;29;20326;-85
2022/06/17 08:52:09;;;;;;;;;;;25.80;71.20;;;;;;4917247;29;19931;-85
2022/06/17 08:54:55;;;;;;;;;;;25.90;70.90;;;;;;4915832;29;19935;-85
2022/06/17 08:57:41;;;;;;;;;;;26.00;70.40;;;;;;4913279;29;20320;-85
2022/06/17 09:00:18;;;;;;;;;;;26.20;70.90;;;;;;4897937;29;19935;-84
2022/06/17 09:03:01;;;;;;;;;;;26.30;70.30;;;;;;4916619;29;19931;-84
2022/06/17 09:05:29;;;;;;;;;;;26.50;70.20;;;;;;4914546;29;19931;-84
2022/06/17 09:08:00;;;;;;;;;;;26.60;70.90;;;;;;4912718;29;19927;-84
2022/06/17 09:10:27;;;;;;;;;;;26.80;70.20;;;;;;4916431;29;19927;-84
2022/06/17 09:13:12;;;;;;;;;;;26.90;69.50;;;;;;4900655;29;19935;-85
2022/06/17 09:15:50;;;;;;;;;;;27.00;69.60;;;;;;4916726;29;19954;-85
2022/06/17 09:18:24;;;;;;;;;;;27.00;68.90;;;;;;4905284;29;20279;-85
2022/06/17 09:20:54;;;;;;;;;;;27.10;68.10;;;;;;4900151;29;20613;-85
2022/06/17 09:23:26;;;;;;;;;;;27.10;68.00;;;;;;4900114;29;20024;-85
2022/06/17 09:25:55;;;;;;;;;;;27.20;68.40;;;;;;4916240;29;19931;-85
2022/06/17 09:28:32;;;;;;;;;;;27.20;68.10;;;;;;4900367;29;19942;-86
2022/06/17 09:31:01;;;;;;;;;;;27.30;69.30;;;;;;4917943;29;19935;-84
2022/06/17 09:33:36;;;;;;;;;;;27.40;69.60;;;;;;4899871;29;20118;-85
2022/06/17 09:36:08;;;;;;;;;;;27.50;69.40;;;;;;4919956;29;19931;-85
2022/06/17 09:38:50;;;;;;;;;;;27.50;69.00;;;;;;4914057;29;19935;-85
2022/06/17 09:41:27;;;;;;;;;;;27.50;69.10;;;;;;4916060;29;19938;-84
2022/06/17 09:44:02;;;;;;;;;;;27.50;69.40;;;;;;4898413;29;19942;-85
2022/06/17 09:46:33;;;;;;;;;;;27.40;69.40;;;;;;4914570;29;19931;-85
2022/06/17 09:49:03;;;;;;;;;;;27.30;69.20;;;;;;4916968;29;20363;-84
2022/06/17 09:51:31;;;;;;;;;;;27.30;69.80;;;;;;4897028;29;20399;-84
2022/06/17 09:54:11;;;;;;;;;;;27.10;70.60;;;;;;4914954;29;19942;-85
2022/06/17 09:56:42;;;;;;;;;;;27.20;70.90;;;;;;4895029;29;20186;-84
2022/06/17 09:59:12;;;;;;;;;;;27.20;71.20;;;;;;4912221;29;19935;-85
2022/06/17 10:01:40;;;;;;;;;;;27.30;70.50;;;;;;4912918;29;20975;-84
2022/06/17 10:04:10;;;;;;;;;;;27.30;70.70;;;;;;4915336;29;19935;-83
2022/06/17 10:06:55;;;;;;;;;;;27.50;70.70;;;;;;4917491;29;19938;-84
2022/06/17 10:09:31;;;;;;;;;;;27.60;70.30;;;;;;4913922;29;19931;-84
2022/06/17 10:12:13;;;;;;;;;;;27.70;68.90;;;;;;4899672;29;19935;-84
2022/06/17 10:14:51;;;;;;;;;;;27.90;68.70;;;;;;4903717;29;19935;-84
2022/06/17 10:20:47;;;;;;;;;;;28.00;68.80;;;;;;4859161;29;20461;-84
2022/06/17 10:23:20;;;;;;;;;;;28.20;69.10;;;;;;4916040;29;19935;-84
2022/06/17 10:25:50;;;;;;;;;;;28.30;69.20;;;;;;4918692;29;19934;-84
2022/06/17 10:28:34;;;;;;;;;;;28.40;68.80;;;;;;4918826;29;20732;-84
2022/06/17 10:31:09;;;;;;;;;;;28.50;67.80;;;;;;4913896;29;19927;-85
2022/06/17 10:33:39;;;;;;;;;;;28.70;66.70;;;;;;4908734;29;19939;-84
2022/06/17 10:36:07;;;;;;;;;;;27.60;65.50;;;;;;4918764;29;19931;-85
2022/06/17 10:38:38;;;;;;;;;;;28.80;66.20;;;;;;4918727;29;19942;-85
2022/06/17 10:41:10;;;;;;;;;;;28.80;66.40;;;;;;4920530;29;19942;-84
2022/06/17 10:43:39;;;;;;;;;;;28.90;66.00;;;;;;4918931;29;19931;-84
2022/06/17 10:46:12;;;;;;;;;;;29.00;65.60;;;;;;4919036;29;19931;-83
2022/06/17 10:48:48;;;;;;;;;;;29.00;65.00;;;;;;4921098;29;19964;-84
2022/06/17 10:51:16;;;;;;;;;;;29.20;65.20;;;;;;4913242;29;19927;-85
2022/06/17 10:53:55;;;;;;;;;;;29.20;65.40;;;;;;4919908;29;19946;-84
2022/06/17 10:56:29;;;;;;;;;;;29.30;65.30;;;;;;4920936;29;20714;-85
2022/06/17 10:58:59;;;;;;;;;;;29.40;65.80;;;;;;4927805;29;19927;-85
2022/06/17 11:01:47;;;;;;;;;;;29.50;65.20;;;;;;4922837;29;19938;-84
2022/06/17 11:04:18;;;;;;;;;;;29.50;65.50;;;;;;4919527;29;19931;-83
2022/06/17 11:06:50;;;;;;;;;;;29.50;64.80;;;;;;4918447;29;19931;-85
2022/06/17 11:09:30;;;;;;;;;;;29.50;64.30;;;;;;4903782;29;19943;-85
2022/06/17 11:12:03;;;;;;;;;;;29.50;64.30;;;;;;4902641;29;19942;-84
2022/06/17 11:14:33;;;;;;;;;;;29.60;63.90;;;;;;4920601;29;19932;-85
2022/06/17 11:17:04;;;;;;;;;;;29.60;64.10;;;;;;4903302;29;20394;-84
2022/06/17 11:19:32;;;;;;;;;;;29.60;63.80;;;;;;4920069;29;19938;-84
2022/06/17 11:22:01;;;;;;;;;;;29.60;64.40;;;;;;4918785;29;20253;-84
2022/06/17 11:24:34;;;;;;;;;;;29.60;64.00;;;;;;4918350;29;19935;-85
2022/06/17 11:27:13;;;;;;;;;;;29.70;63.60;;;;;;4919951;29;19931;-84
2022/06/17 11:29:43;;;;;;;;;;;29.80;63.10;;;;;;4920638;29;20005;-85
2022/06/17 11:32:12;;;;;;;;;;;30.00;63.00;;;;;;4921523;29;19966;-83
2022/06/17 11:34:52;;;;;;;;;;;30.20;63.20;;;;;;4923506;29;20351;-85
2022/06/17 11:37:23;;;;;;;;;;;30.30;62.60;;;;;;4922405;29;19938;-83
2022/06/17 11:40:24;;;;;;;;;;;30.30;62.50;;;;;;4903694;29;19934;-83
2022/06/17 11:42:57;;;;;;;;;;;30.40;62.50;;;;;;4886698;29;20430;-85
2022/06/17 11:45:36;;;;;;;;;;;30.40;62.40;;;;;;4918395;29;20350;-83
2022/06/17 11:48:04;;;;;;;;;;;30.50;62.40;;;;;;4902953;29;19936;-84
2022/06/17 11:50:58;;;;;;;;;;;30.50;62.40;;;;;;4919920;29;19927;-84
2022/06/17 11:53:35;;;;;;;;;;;30.50;62.10;;;;;;4901840;29;19933;-83
2022/06/17 11:56:08;;;;;;;;;;;30.70;61.90;;;;;;4887939;29;20152;-83
2022/06/17 11:59:14;;;;;;;;;;;30.60;62.20;;;;;;4902253;29;19946;-84
2022/06/17 12:01:47;;;;;;;;;;;30.60;62.00;;;;;;4891320;29;19927;-83
2022/06/17 12:04:35;;;;;;;;;;;30.70;61.70;;;;;;4917672;29;19935;-84
2022/06/17 12:07:27;;;;;;;;;;;30.80;61.70;;;;;;4904737;29;19927;-83
2022/06/17 12:10:35;;;;;;;;;;;30.80;62.20;;;;;;4887069;29;20009;-83
2022/06/17 12:13:22;;;;;;;;;;;31.10;62.80;;;;;;4918979;29;19951;-84
2022/06/17 12:15:49;;;;;;;;;;;31.00;62.70;;;;;;4903558;29;19942;-84
2022/06/17 12:18:23;;;;;;;;;;;31.10;62.90;;;;;;4901553;29;19936;-84
2022/06/17 12:21:12;;;;;;;;;;;31.30;63.50;;;;;;4902824;29;19927;-84
2022/06/17 12:23:44;;;;;;;;;;;31.40;63.20;;;;;;4918224;29;19933;-84
2022/06/17 12:26:54;;;;;;;;;;;31.50;63.30;;;;;;4920516;29;19935;-84
2022/06/17 12:29:31;;;;;;;;;;;31.70;62.70;;;;;;4865265;29;19931;-84
2022/06/17 12:32:04;;;;;;;;;;;31.70;62.60;;;;;;4861641;29;20290;-84
2022/06/17 12:34:32;;;;;;;;;;;31.70;63.30;;;;;;4903788;29;19935;-83
2022/06/17 12:37:12;;;;;;;;;;;31.70;62.70;;;;;;4918544;29;19928;-84
2022/06/17 12:39:42;;;;;;;;;;;32.50;63.20;;;;;;4921863;29;20355;-83
2022/06/17 12:42:17;;;;;;;;;;;31.70;63.00;;;;;;4914582;29;19938;-85
2022/06/17 12:45:22;;;;;;;;;;;31.80;61.00;;;;;;4918156;29;20241;-84
2022/06/17 12:47:59;;;;;;;;;;;31.70;59.80;;;;;;4873816;29;19938;-83
2022/06/17 12:53:34;;;;;;;;;;;31.80;60.10;;;;;;4911104;29;19931;-85
2022/06/17 12:56:06;;;;;;;;;;;31.90;59.10;;;;;;4900923;29;19927;-85
2022/06/17 12:58:43;;;;;;;;;;;32.00;59.20;;;;;;4912934;29;19935;-84
2022/06/17 13:01:13;;;;;;;;;;;32.10;59.10;;;;;;4900221;29;19927;-85
2022/06/17 13:03:43;;;;;;;;;;;32.30;59.30;;;;;;4917103;29;19927;-85
2022/06/17 13:06:26;;;;;;;;;;;32.40;59.00;;;;;;4898504;29;19947;-85
2022/06/17 13:09:06;;;;;;;;;;;32.50;58.60;;;;;;4895771;29;19935;-85
2022/06/17 13:11:39;;;;;;;;;;;32.60;58.80;;;;;;4901650;29;19935;-84
2022/06/17 13:14:13;;;;;;;;;;;32.70;58.50;;;;;;4884733;29;19950;-84
2022/06/17 13:16:45;;;;;;;;;;;32.70;58.70;;;;;;4884220;29;19931;-85
2022/06/17 13:19:31;;;;;;;;;;;32.70;58.80;;;;;;4916787;29;19942;-84
2022/06/17 13:22:14;;;;;;;;;;;33.00;58.80;;;;;;4913851;29;20730;-85
2022/06/17 13:25:05;;;;;;;;;;;33.10;59.00;;;;;;4897554;29;19938;-83
2022/06/17 13:27:58;;;;;;;;;;;33.10;58.50;;;;;;4901386;29;19946;-84
2022/06/17 13:30:30;;;;;;;;;;;33.20;58.50;;;;;;4918959;29;19943;-85
2022/06/17 13:33:16;;;;;;;;;;;33.30;58.80;;;;;;4900468;29;19935;-85
2022/06/17 13:35:47;;;;;;;;;;;33.40;58.20;;;;;;4917772;29;19935;-85
2022/06/17 13:38:27;;;;;;;;;;;33.50;58.00;;;;;;4895788;29;19938;-86
2022/06/17 13:40:59;;;;;;;;;;;33.40;58.50;;;;;;4899677;29;19931;-85
2022/06/17 13:43:34;;;;;;;;;;;33.50;58.70;;;;;;4900790;29;19938;-86
2022/06/17 13:46:07;;;;;;;;;;;33.60;58.80;;;;;;4914172;29;19927;-85
2022/06/17 13:48:41;;;;;;;;;;;33.80;58.60;;;;;;4900942;29;19935;-84
2022/06/17 13:51:22;;;;;;;;;;;34.10;58.40;;;;;;4916226;29;19931;-85
2022/06/17 13:54:10;;;;;;;;;;;34.20;58.60;;;;;;4901485;29;19931;-86
2022/06/17 13:56:38;;;;;;;;;;;34.50;58.50;;;;;;4916260;29;19927;-85
2022/06/17 13:59:31;;;;;;;;;;;34.70;57.90;;;;;;4899115;29;19928;-84
2022/06/17 14:02:47;;;;;;;;;;;34.90;58.30;;;;;;4869862;29;20631;-85
2022/06/17 14:05:35;;;;;;;;;;;35.00;57.90;;;;;;4905508;29;19935;-84
2022/06/17 14:08:04;;;;;;;;;;;35.10;57.30;;;;;;4900827;29;19927;-87
2022/06/17 14:10:32;;;;;;;;;;;35.20;57.50;;;;;;4920198;29;20012;-84
2022/06/17 14:13:01;;;;;;;;;;;35.30;57.90;;;;;;4898777;29;20457;-86
2022/06/17 14:15:31;;;;;;;;;;;35.30;57.00;;;;;;4884498;29;19935;-84
2022/06/17 14:18:00;;;;;;;;;;;35.50;57.30;;;;;;4918115;29;19927;-85
2022/06/17 14:20:32;;;;;;;;;;;35.60;57.50;;;;;;4898855;29;19928;-84
2022/06/17 14:23:12;;;;;;;;;;;36.00;57.60;;;;;;4883139;29;19935;-84
2022/06/17 14:25:46;;;;;;;;;;;36.20;56.70;;;;;;4917110;29;19927;-85
2022/06/17 14:28:34;;;;;;;;;;;36.20;56.30;;;;;;4898915;29;19934;-84
2022/06/17 14:31:10;;;;;;;;;;;36.20;56.60;;;;;;4915531;29;19927;-85
2022/06/17 14:33:58;;;;;;;;;;;36.20;56.00;;;;;;4916607;29;19931;-85
2022/06/17 14:36:55;;;;;;;;;;;36.00;55.80;;;;;;4899510;29;19927;-84
2022/06/17 14:39:58;;;;;;;;;;;35.90;56.40;;;;;;4893917;29;19935;-84
2022/06/17 14:42:27;;;;;;;;;;;35.80;55.80;;;;;;4884187;29;19934;-84
2022/06/17 14:45:14;;;;;;;;;;;35.60;56.60;;;;;;4919687;29;19942;-84
2022/06/17 14:47:59;;;;;;;;;;;35.70;56.20;;;;;;4915100;29;20107;-84
2022/06/17 14:50:45;;;;;;;;;;;35.80;56.30;;;;;;4901483;29;19934;-86
2022/06/17 14:53:21;;;;;;;;;;;36.00;56.20;;;;;;4899580;29;19938;-85
2022/06/17 14:56:10;;;;;;;;;;;36.30;56.40;;;;;;4903939;29;19931;-84
2022/06/17 14:58:56;;;;;;;;;;;36.20;55.80;;;;;;4920110;29;19927;-85
2022/06/17 15:01:35;;;;;;;;;;;36.50;55.70;;;;;;4913212;29;19935;-84
2022/06/17 15:04:12;;;;;;;;;;;36.40;55.60;;;;;;4925904;29;19927;-84
2022/06/17 15:06:45;;;;;;;;;;;36.30;55.90;;;;;;4927229;29;19936;-85
2022/06/17 15:09:39;;;;;;;;;;;36.50;56.20;;;;;;4910101;29;19933;-84
2022/06/17 15:12:17;;;;;;;;;;;36.60;55.50;;;;;;4926560;29;19927;-84
2022/06/17 15:14:47;;;;;;;;;;;36.60;55.50;;;;;;4894425;29;19961;-83